createdAt,value
2018-12-14T00:00:15.954Z,21.87
2018-12-14T00:02:46.169Z,21.27
2018-12-14T00:05:18.802Z,22.93
2018-12-14T00:07:49.625Z,21.60
2018-12-14T00:10:22.731Z,21.93
2018-12-14T00:12:53.056Z,22.20
2018-12-14T00:19:16.652Z,21.07
2018-12-14T00:21:46.772Z,21.77
2018-12-14T00:24:17.736Z,21.33
2018-12-14T00:26:49.855Z,22.17
2018-12-14T00:29:26.533Z,24.02
2018-12-14T00:31:57.876Z,22.05
2018-12-14T00:34:28.555Z,22.50
2018-12-14T00:36:59.257Z,21.63
2018-12-14T00:39:29.884Z,21.60
2018-12-14T00:42:00.748Z,23.23
2018-12-14T00:44:31.004Z,22.03
2018-12-14T00:47:07.901Z,21.25
2018-12-14T00:49:38.806Z,20.43
2018-12-14T00:52:09.973Z,22.20
2018-12-14T00:54:40.110Z,23.80
2018-12-14T00:57:16.931Z,21.33
2018-12-14T00:59:46.956Z,20.12
2018-12-14T01:02:23.276Z,21.23
2018-12-14T01:04:55.050Z,23.00
2018-12-14T01:07:31.863Z,23.00
2018-12-14T01:10:01.924Z,22.30
2018-12-14T01:12:32.147Z,21.73
2018-12-14T01:15:06.384Z,21.07
2018-12-14T01:17:39.065Z,22.10
2018-12-14T01:20:10.553Z,21.30
2018-12-14T01:22:40.914Z,20.33
2018-12-14T01:25:11.233Z,21.70
2018-12-14T01:27:42.099Z,21.80
2018-12-14T01:30:12.892Z,21.33
2018-12-14T01:32:43.156Z,19.77
2018-12-14T01:35:14.257Z,20.63
2018-12-14T01:37:44.767Z,20.07
2018-12-14T01:40:15.170Z,21.37
2018-12-14T01:42:46.296Z,21.00
2018-12-14T01:45:17.124Z,21.90
2018-12-14T01:47:47.532Z,21.80
2018-12-14T01:50:18.120Z,20.00
2018-12-14T01:52:53.206Z,20.30
2018-12-14T01:55:25.256Z,21.20
2018-12-14T01:57:58.890Z,21.37
2018-12-14T02:00:30.278Z,22.15
2018-12-14T02:03:01.227Z,20.17
2018-12-14T02:05:32.261Z,20.37
2018-12-14T02:08:05.836Z,20.50
2018-12-14T02:10:37.299Z,21.37
2018-12-14T02:13:09.420Z,21.07
2018-12-14T02:15:40.464Z,24.10
2018-12-14T02:18:11.008Z,21.75
2018-12-14T02:20:41.243Z,21.93
2018-12-14T02:23:15.148Z,21.17
2018-12-14T02:25:45.327Z,23.43
2018-12-14T02:28:16.337Z,22.20
2018-12-14T02:30:46.784Z,21.30
2018-12-14T02:33:17.425Z,23.17
2018-12-14T02:35:49.304Z,23.40
2018-12-14T02:38:21.486Z,23.00
2018-12-14T02:40:52.354Z,22.50
2018-12-14T02:43:23.981Z,21.93
2018-12-14T02:45:56.663Z,24.63
2018-12-14T02:48:27.803Z,22.23
2018-12-14T02:50:58.484Z,22.67
2018-12-14T02:53:31.471Z,21.67
2018-12-14T02:56:05.625Z,23.73
2018-12-14T02:58:36.546Z,22.55
2018-12-14T03:01:07.140Z,22.58
2018-12-14T03:03:37.741Z,24.23
2018-12-14T03:06:08.888Z,24.20
2018-12-14T03:08:39.864Z,22.58
2018-12-14T03:11:14.420Z,23.95
2018-12-14T03:13:44.448Z,27.00
2018-12-14T03:16:17.215Z,23.45
2018-12-14T03:18:49.539Z,22.83
2018-12-14T03:21:21.619Z,23.07
2018-12-14T03:23:54.524Z,21.70
2018-12-14T03:26:28.873Z,25.35
2018-12-14T03:28:59.618Z,24.00
2018-12-14T03:31:30.162Z,23.87
2018-12-14T03:34:00.820Z,22.50
2018-12-14T03:36:31.390Z,23.53
2018-12-14T03:39:01.772Z,24.90
2018-12-14T03:41:32.694Z,21.53
2018-12-14T03:44:02.841Z,23.47
2018-12-14T03:46:33.621Z,22.32
2018-12-14T03:49:10.479Z,22.57
2018-12-14T03:51:42.763Z,23.50
2018-12-14T03:54:13.748Z,22.70
2018-12-14T03:56:45.758Z,23.13
2018-12-14T03:59:16.604Z,22.77
2018-12-14T04:01:46.808Z,22.20
2018-12-14T04:04:17.857Z,21.73
2018-12-14T04:06:50.213Z,21.57
2018-12-14T04:09:22.717Z,22.83
2018-12-14T04:11:52.874Z,22.33
2018-12-14T04:14:22.973Z,22.20
2018-12-14T04:16:56.562Z,23.43
2018-12-14T04:19:28.853Z,22.55
2018-12-14T04:21:58.960Z,22.50
2018-12-14T04:24:29.679Z,23.73
2018-12-14T04:26:59.888Z,22.30
2018-12-14T04:29:31.527Z,24.05
2018-12-14T04:32:02.173Z,23.27
2018-12-14T04:34:32.832Z,22.52
2018-12-14T04:37:02.929Z,21.20
2018-12-14T04:39:33.869Z,23.37
2018-12-14T04:42:04.023Z,22.77
2018-12-14T04:44:34.848Z,25.13
2018-12-14T04:47:05.640Z,25.40
2018-12-14T04:49:36.133Z,23.55
2018-12-14T04:56:04.777Z,21.30
2018-12-14T04:58:34.865Z,21.83
2018-12-14T05:01:06.085Z,21.33
2018-12-14T05:04:04.620Z,21.10
2018-12-14T05:06:35.512Z,20.50
2018-12-14T05:09:08.407Z,23.00
2018-12-14T05:11:39.394Z,22.53
2018-12-14T05:14:11.113Z,23.87
2018-12-14T05:16:45.357Z,21.67
2018-12-14T05:19:18.201Z,24.67
2018-12-14T05:21:50.454Z,25.10
2018-12-14T05:24:22.174Z,22.73
2018-12-14T05:26:53.849Z,23.73
2018-12-14T05:29:24.307Z,24.27
2018-12-14T05:32:07.516Z,25.90
2018-12-14T05:34:39.176Z,26.57
2018-12-14T05:37:13.815Z,23.93
2018-12-14T05:39:45.651Z,25.43
2018-12-14T05:42:18.235Z,27.33
2018-12-14T05:44:50.164Z,32.13
2018-12-14T05:47:22.249Z,32.40
2018-12-14T05:49:59.235Z,28.33
2018-12-14T05:52:36.549Z,25.23
2018-12-14T05:55:07.506Z,26.03
2018-12-14T05:57:40.697Z,27.63
2018-12-14T06:00:12.806Z,25.88
2018-12-14T06:02:45.328Z,26.70
2018-12-14T06:05:18.260Z,26.70
2018-12-14T06:07:50.781Z,24.27
2018-12-14T06:10:23.319Z,25.40
2018-12-14T06:13:00.120Z,24.90
2018-12-14T06:15:30.355Z,26.15
2018-12-14T06:18:01.759Z,27.80
2018-12-14T06:20:32.321Z,24.53
2018-12-14T06:23:03.010Z,25.57
2018-12-14T06:25:33.777Z,24.77
2018-12-14T06:28:04.629Z,23.67
2018-12-14T06:30:34.944Z,25.07
2018-12-14T06:33:05.399Z,21.43
2018-12-14T06:35:36.126Z,25.47
2018-12-14T06:38:06.459Z,23.07
2018-12-14T06:40:37.100Z,21.50
2018-12-14T06:43:07.842Z,23.43
2018-12-14T06:45:46.506Z,24.13
2018-12-14T06:48:17.392Z,25.27
2018-12-14T06:50:48.057Z,23.52
2018-12-14T06:53:18.632Z,23.30
2018-12-14T06:55:55.540Z,23.10
2018-12-14T06:58:26.140Z,24.27
2018-12-14T07:00:56.516Z,25.37
2018-12-14T07:03:30.538Z,24.20
2018-12-14T07:06:03.572Z,23.87
2018-12-14T07:08:39.016Z,24.63
2018-12-14T07:11:11.535Z,23.77
2018-12-14T07:13:44.668Z,22.95
2018-12-14T07:16:21.503Z,24.73
2018-12-14T07:18:52.583Z,23.83
2018-12-14T07:21:29.367Z,25.25
2018-12-14T07:23:59.844Z,23.90
2018-12-14T07:26:30.803Z,24.87
2018-12-14T07:29:04.366Z,23.80
2018-12-14T07:31:34.488Z,23.87
2018-12-14T07:34:05.839Z,24.63
2018-12-14T07:36:36.675Z,25.43
2018-12-14T07:39:08.292Z,24.50
2018-12-14T07:41:38.796Z,22.37
2018-12-14T07:44:08.851Z,22.67
2018-12-14T07:46:39.017Z,26.33
2018-12-14T07:49:09.996Z,25.90
2018-12-14T07:51:40.571Z,22.50
2018-12-14T07:54:10.963Z,23.30
2018-12-14T07:56:41.759Z,24.50
2018-12-14T07:59:12.780Z,24.27
2018-12-14T08:01:42.827Z,24.15
2018-12-14T08:08:07.883Z,24.20
2018-12-14T08:10:39.889Z,23.12
2018-12-14T08:13:16.151Z,24.85
2018-12-14T08:15:46.782Z,24.10
2018-12-14T08:18:17.715Z,22.15
2018-12-14T08:20:48.511Z,23.12
2018-12-14T08:23:19.032Z,22.90
2018-12-14T08:25:49.890Z,20.90
2018-12-14T08:28:26.944Z,24.07
2018-12-14T08:30:57.815Z,22.70
2018-12-14T08:33:28.121Z,21.85
2018-12-14T08:35:58.992Z,20.17
2018-12-14T08:38:35.776Z,21.00
2018-12-14T08:41:07.135Z,21.23
2018-12-14T08:43:41.361Z,21.83
2018-12-14T08:46:10.946Z,21.43
2018-12-14T08:48:41.746Z,21.73
2018-12-14T08:51:12.171Z,23.57
2018-12-14T08:53:43.358Z,21.93
2018-12-14T08:56:13.528Z,21.30
2018-12-14T08:58:43.992Z,24.03
2018-12-14T09:01:14.520Z,22.40
2018-12-14T09:03:44.993Z,22.50
2018-12-14T09:06:16.272Z,21.20
2018-12-14T09:08:46.630Z,21.43
2018-12-14T09:11:17.374Z,21.70
2018-12-14T09:13:47.992Z,20.13
2018-12-14T09:16:18.804Z,21.37
2018-12-14T09:18:49.276Z,21.90
2018-12-14T09:21:19.939Z,20.87
2018-12-14T09:23:50.125Z,20.57
2018-12-14T09:26:22.164Z,21.52
2018-12-14T09:28:52.262Z,22.20
2018-12-14T09:31:23.384Z,20.10
2018-12-14T09:33:54.427Z,22.47
2018-12-14T09:36:24.856Z,22.62
2018-12-14T09:38:55.377Z,22.30
2018-12-14T09:41:26.351Z,22.62
2018-12-14T09:43:57.149Z,22.30
2018-12-14T09:46:27.499Z,22.57
2018-12-14T09:48:58.544Z,19.95
2018-12-14T09:51:32.260Z,21.73
2018-12-14T09:54:03.373Z,21.90
2018-12-14T09:56:40.768Z,21.80
2018-12-14T09:59:13.725Z,22.10
2018-12-14T10:01:46.470Z,23.18
2018-12-14T10:04:17.389Z,22.23
2018-12-14T10:06:47.803Z,19.37
2018-12-14T10:09:18.528Z,21.25
2018-12-14T10:11:54.916Z,22.90
2018-12-14T10:14:22.980Z,19.73
2018-12-14T10:16:53.417Z,20.90
2018-12-14T10:19:28.348Z,21.03
2018-12-14T10:22:00.350Z,20.23
2018-12-14T10:24:32.977Z,21.40
2018-12-14T10:27:05.728Z,20.10
2018-12-14T10:29:36.085Z,20.30
2018-12-14T10:32:06.415Z,23.10
2018-12-14T10:34:43.899Z,21.40
2018-12-14T10:37:14.672Z,20.87
2018-12-14T10:39:45.576Z,19.43
2018-12-14T10:42:18.873Z,19.87
2018-12-14T10:44:50.935Z,21.00
2018-12-14T10:47:23.616Z,23.57
2018-12-14T10:50:01.238Z,20.90
2018-12-14T10:52:34.139Z,19.33
2018-12-14T10:55:07.348Z,21.63
2018-12-14T10:57:40.375Z,21.73
2018-12-14T11:00:18.769Z,22.87
2018-12-14T11:02:51.666Z,23.35
2018-12-14T11:05:24.621Z,22.15
2018-12-14T11:07:55.820Z,20.00
2018-12-14T11:10:26.568Z,21.27
2018-12-14T11:12:59.590Z,22.13
2018-12-14T11:15:30.625Z,21.80
2018-12-14T11:18:01.878Z,22.53
2018-12-14T11:20:34.530Z,22.20
2018-12-14T11:23:06.196Z,23.17
2018-12-14T11:25:38.096Z,22.30
2018-12-14T11:28:09.123Z,23.57
2018-12-14T11:30:40.167Z,24.00
2018-12-14T11:33:10.288Z,23.10
2018-12-14T11:35:41.229Z,22.17
2018-12-14T11:38:12.241Z,23.22
2018-12-14T11:40:42.919Z,22.77
2018-12-14T11:43:17.017Z,22.70
2018-12-14T11:45:47.779Z,23.97
2018-12-14T11:48:18.136Z,21.17
2018-12-14T11:50:50.209Z,22.58
2018-12-14T11:57:15.247Z,22.00
2018-12-14T11:59:46.560Z,20.95
2018-12-14T12:02:16.206Z,23.20
2018-12-14T12:04:46.352Z,25.23
2018-12-14T12:07:17.415Z,23.67
2018-12-14T12:09:47.119Z,22.67
2018-12-14T12:12:18.396Z,24.20
2018-12-14T12:14:50.340Z,23.17
2018-12-14T12:17:20.346Z,24.23
2018-12-14T12:19:53.623Z,26.63
2018-12-14T12:22:24.731Z,24.50
2018-12-14T12:24:55.328Z,26.50
2018-12-14T12:27:26.031Z,27.32
2018-12-14T12:33:51.680Z,24.13
2018-12-14T12:36:22.630Z,26.40
2018-12-14T12:38:53.637Z,26.90
2018-12-14T12:41:23.658Z,24.27
2018-12-14T12:43:55.639Z,28.25
2018-12-14T12:46:25.655Z,26.50
2018-12-14T12:48:55.845Z,24.25
2018-12-14T12:51:26.948Z,25.90
2018-12-14T12:53:57.459Z,27.77
2018-12-14T12:56:28.793Z,28.30
2018-12-14T12:58:59.506Z,28.10
2018-12-14T13:01:29.748Z,27.30
2018-12-14T13:04:00.483Z,25.97
2018-12-14T13:06:30.444Z,24.47
2018-12-14T13:09:01.633Z,26.35
2018-12-14T13:11:31.665Z,23.93
2018-12-14T13:14:02.863Z,25.60
2018-12-14T13:16:33.457Z,27.27
2018-12-14T13:19:04.037Z,27.17
2018-12-14T13:21:34.949Z,25.33
2018-12-14T13:24:04.944Z,26.20
2018-12-14T13:26:41.706Z,27.03
2018-12-14T13:29:12.514Z,26.07
2018-12-14T13:31:46.501Z,28.70
2018-12-14T13:34:16.768Z,29.70
2018-12-14T13:36:49.636Z,26.70
2018-12-14T13:39:21.021Z,25.70
2018-12-14T13:41:54.180Z,26.53
2018-12-14T13:44:26.532Z,30.20
2018-12-14T13:46:58.899Z,27.77
2018-12-14T13:49:30.695Z,28.15
2018-12-14T13:52:00.733Z,30.02
2018-12-14T13:58:24.100Z,28.43
2018-12-14T14:00:54.005Z,29.15
2018-12-14T14:03:25.650Z,28.70
2018-12-14T14:05:57.042Z,28.50
2018-12-14T14:08:27.065Z,26.00
2018-12-14T14:10:56.971Z,29.10
2018-12-14T14:13:28.290Z,30.07
2018-12-14T14:16:01.277Z,29.60
2018-12-14T14:18:33.145Z,27.67
2018-12-14T14:21:08.905Z,26.57
2018-12-14T14:23:40.610Z,26.87
2018-12-14T14:26:24.314Z,29.30
2018-12-14T14:28:56.009Z,29.70
2018-12-14T14:31:26.835Z,26.87
2018-12-14T14:33:59.977Z,29.53
2018-12-14T14:36:35.484Z,28.10
2018-12-14T14:39:12.806Z,28.37
2018-12-14T14:41:43.852Z,30.77
2018-12-14T14:44:14.081Z,29.12
2018-12-14T14:46:44.161Z,26.83
2018-12-14T14:49:15.278Z,29.13
2018-12-14T14:51:45.617Z,27.83
2018-12-14T14:54:16.063Z,29.00
2018-12-14T14:56:49.901Z,29.02
2018-12-14T14:59:21.317Z,31.20
2018-12-14T15:01:52.395Z,29.90
2018-12-14T15:04:22.704Z,29.80
2018-12-14T15:07:05.183Z,30.70
2018-12-14T15:09:36.227Z,28.17
2018-12-14T15:12:06.176Z,29.57
2018-12-14T15:14:37.264Z,28.07
2018-12-14T15:17:08.252Z,31.33
2018-12-14T15:19:38.931Z,32.07
2018-12-14T15:22:09.143Z,30.00
2018-12-14T15:24:40.159Z,28.73
2018-12-14T15:27:10.116Z,29.00
2018-12-14T15:29:41.440Z,31.42
2018-12-14T15:32:12.639Z,29.33
2018-12-14T15:34:42.167Z,30.30
2018-12-14T15:37:14.241Z,32.13
2018-12-14T15:39:46.565Z,29.10
2018-12-14T15:42:17.546Z,29.37
2018-12-14T15:44:47.201Z,29.30
2018-12-14T15:47:18.651Z,28.90
2018-12-14T15:49:49.639Z,29.40
2018-12-14T15:52:20.282Z,31.37
2018-12-14T15:54:51.518Z,31.50
2018-12-14T15:57:21.957Z,31.05
2018-12-14T15:59:53.252Z,29.42
2018-12-14T16:02:23.712Z,31.12
2018-12-14T16:04:53.425Z,30.63
2018-12-14T16:07:25.312Z,29.72
2018-12-14T16:09:56.205Z,29.17
2018-12-14T16:12:30.239Z,29.43
2018-12-14T16:15:00.895Z,31.07
2018-12-14T16:17:31.421Z,28.70
2018-12-14T16:20:02.062Z,29.30
2018-12-14T16:22:33.526Z,29.77
2018-12-14T16:25:07.189Z,28.57
2018-12-14T16:27:39.982Z,30.53
2018-12-14T16:30:13.064Z,28.60
2018-12-14T16:32:43.962Z,29.60
2018-12-14T16:35:14.129Z,28.30
2018-12-14T16:37:44.292Z,32.10
2018-12-14T16:40:14.471Z,31.30
2018-12-14T16:42:44.588Z,31.07
2018-12-14T16:45:14.898Z,32.30
2018-12-14T16:47:45.129Z,32.80
2018-12-14T16:50:16.409Z,29.50
2018-12-14T16:52:47.687Z,31.47
2018-12-14T16:55:18.032Z,28.97
2018-12-14T16:57:49.732Z,30.68
2018-12-14T17:00:20.208Z,29.57
2018-12-14T17:02:50.469Z,32.85
2018-12-14T17:05:20.548Z,29.93
2018-12-14T17:07:51.004Z,30.57
2018-12-14T17:10:21.225Z,29.57
2018-12-14T17:12:51.441Z,30.10
2018-12-14T17:15:21.577Z,26.17
2018-12-14T17:17:51.968Z,27.47
2018-12-14T17:20:23.039Z,26.90
2018-12-14T17:22:53.165Z,29.30
2018-12-14T17:25:24.300Z,30.15
2018-12-14T17:27:55.366Z,31.97
2018-12-14T17:30:25.730Z,29.27
2018-12-14T17:32:55.948Z,30.97
2018-12-14T17:35:26.216Z,27.03
2018-12-14T17:37:56.295Z,29.48
2018-12-14T17:40:26.652Z,27.93
2018-12-14T17:42:56.809Z,28.00
2018-12-14T17:45:26.951Z,29.53
2018-12-14T17:47:57.079Z,29.27
2018-12-14T17:50:27.568Z,28.73
2018-12-14T17:52:57.718Z,31.70
2018-12-14T17:55:27.951Z,27.65
2018-12-14T17:57:58.644Z,29.45
2018-12-14T18:00:28.904Z,29.77
2018-12-14T18:02:58.932Z,32.93
2018-12-14T18:05:29.063Z,30.45
2018-12-14T18:08:05.447Z,29.30
2018-12-14T18:10:35.610Z,28.30
2018-12-14T18:13:05.800Z,32.60
2018-12-14T18:15:36.128Z,31.53
2018-12-14T18:18:06.351Z,29.30
2018-12-14T18:20:36.583Z,31.67
2018-12-14T18:23:06.680Z,31.50
2018-12-14T18:25:36.882Z,30.30
2018-12-14T18:28:06.921Z,34.00
2018-12-14T18:30:37.795Z,33.03
2018-12-14T18:33:09.253Z,30.75
2018-12-14T18:35:39.599Z,30.77
2018-12-14T18:38:10.874Z,31.20
2018-12-14T18:40:41.209Z,35.60
2018-12-14T18:43:11.402Z,32.10
2018-12-14T18:45:41.990Z,32.67
2018-12-14T18:48:12.374Z,30.77
2018-12-14T18:50:42.649Z,29.63
2018-12-14T18:53:12.916Z,28.53
2018-12-14T18:55:43.225Z,29.80
2018-12-14T18:58:13.458Z,27.50
2018-12-14T19:00:43.690Z,28.65
2018-12-14T19:03:14.447Z,31.93
2018-12-14T19:05:44.481Z,29.73
2018-12-14T19:08:14.778Z,31.13
2018-12-14T19:10:45.097Z,30.80
2018-12-14T19:13:15.363Z,31.87
2018-12-14T19:15:45.432Z,29.93
2018-12-14T19:18:15.665Z,31.20
2018-12-14T19:20:45.837Z,32.90
2018-12-14T19:27:12.358Z,32.20
2018-12-14T19:29:42.603Z,31.87
2018-12-14T19:32:13.444Z,36.53
2018-12-14T19:34:43.894Z,33.33
2018-12-14T19:37:14.203Z,33.47
2018-12-14T19:39:44.667Z,33.33
2018-12-14T19:42:14.758Z,35.30
2018-12-14T19:44:44.979Z,35.47
2018-12-14T19:47:15.555Z,35.50
2018-12-14T19:49:45.977Z,35.90
2018-12-14T19:52:16.315Z,35.33
2018-12-14T19:54:46.420Z,37.17
2018-12-14T19:57:16.751Z,37.30
2018-12-14T19:59:47.138Z,37.30
2018-12-14T20:02:17.607Z,35.70
2018-12-14T20:04:47.883Z,34.93
2018-12-14T20:07:18.150Z,35.93
2018-12-14T20:09:48.214Z,37.23
2018-12-14T20:12:18.540Z,33.37
2018-12-14T20:14:48.905Z,36.50
2018-12-14T20:17:19.124Z,35.20
2018-12-14T20:19:49.354Z,35.40
2018-12-14T20:22:19.694Z,34.87
2018-12-14T20:24:50.115Z,34.43
2018-12-14T20:27:21.294Z,34.33
2018-12-14T20:29:51.485Z,36.05
2018-12-14T20:32:21.698Z,34.80
2018-12-14T20:34:52.082Z,35.97
2018-12-14T20:37:22.383Z,36.37
2018-12-14T20:39:52.791Z,37.15
2018-12-14T20:42:23.102Z,35.10
2018-12-14T20:44:53.479Z,35.53
2018-12-14T20:47:23.660Z,38.30
2018-12-14T20:49:53.774Z,35.60
2018-12-14T20:52:24.139Z,39.40
2018-12-14T20:54:54.239Z,41.13
2018-12-14T20:57:24.576Z,41.40
2018-12-14T20:59:54.693Z,39.92
2018-12-14T21:02:24.954Z,40.17
2018-12-14T21:04:55.269Z,40.13
2018-12-14T21:07:25.762Z,43.05
2018-12-14T21:09:55.985Z,39.83
2018-12-14T21:12:26.207Z,40.67
2018-12-14T21:14:56.540Z,40.75
2018-12-14T21:17:26.916Z,38.50
2018-12-14T21:19:57.253Z,41.20
2018-12-14T21:22:27.402Z,39.60
2018-12-14T21:24:57.580Z,38.10
2018-12-14T21:27:27.962Z,39.15
2018-12-14T21:29:58.191Z,40.90
2018-12-14T21:32:28.353Z,37.37
2018-12-14T21:34:58.695Z,40.90
2018-12-14T21:37:29.074Z,36.43
2018-12-14T21:39:59.281Z,36.58
2018-12-14T21:42:29.850Z,38.40
2018-12-14T21:45:00.241Z,37.67
2018-12-14T21:47:30.439Z,40.27
2018-12-14T21:50:00.735Z,38.13
2018-12-14T21:52:31.251Z,38.27
2018-12-14T21:55:01.484Z,37.50
2018-12-14T21:57:31.841Z,38.87
2018-12-14T22:00:02.088Z,39.88
2018-12-14T22:06:21.353Z,38.73
2018-12-14T22:08:52.009Z,36.90
2018-12-14T22:11:22.206Z,41.73
2018-12-14T22:13:52.426Z,37.70
2018-12-14T22:16:23.283Z,40.43
2018-12-14T22:18:53.523Z,42.08
2018-12-14T22:21:24.209Z,41.90
2018-12-14T22:23:54.756Z,40.70
2018-12-14T22:26:25.031Z,40.00
2018-12-14T22:28:55.167Z,42.30
2018-12-14T22:31:25.299Z,41.55
2018-12-14T22:33:55.496Z,42.00
2018-12-14T22:36:25.904Z,43.53
2018-12-14T22:38:56.111Z,40.45
2018-12-14T22:41:26.296Z,42.17
2018-12-14T22:43:56.882Z,43.60
2018-12-14T22:46:27.337Z,43.23
2018-12-14T22:48:57.444Z,42.50
2018-12-14T22:51:27.563Z,40.92
2018-12-14T22:53:57.785Z,40.17
2018-12-14T22:56:27.893Z,44.57
2018-12-14T22:58:58.224Z,43.80
2018-12-14T23:01:28.569Z,45.67
2018-12-14T23:03:58.729Z,43.40
2018-12-14T23:06:29.020Z,42.40
2018-12-14T23:08:59.136Z,43.57
2018-12-14T23:11:29.480Z,43.48
2018-12-14T23:14:00.302Z,39.67
2018-12-14T23:16:30.912Z,41.50
2018-12-14T23:19:01.172Z,43.00
2018-12-14T23:21:34.315Z,41.48
2018-12-14T23:24:04.650Z,44.57
2018-12-14T23:26:34.842Z,44.10
2018-12-14T23:29:05.001Z,41.57
2018-12-14T23:31:35.727Z,44.77
2018-12-14T23:34:06.227Z,44.00
2018-12-14T23:36:36.584Z,42.07
2018-12-14T23:39:08.272Z,42.57
2018-12-14T23:41:38.459Z,42.53
2018-12-14T23:44:08.568Z,44.33
2018-12-14T23:46:38.865Z,46.50
2018-12-14T23:49:09.180Z,43.93
2018-12-14T23:51:39.508Z,44.70
2018-12-14T23:54:10.088Z,47.90
2018-12-14T23:56:40.199Z,46.13
2018-12-14T23:59:10.311Z,45.37
